sensor_id;sensor_type;location;lat;lon;timestamp;temperature;humidity
5520;DHT22;2782;52.362;10.012;2022-12-11T00:00:22;15.90;57.50
5520;DHT22;2782;52.362;10.012;2022-12-11T00:01:24;15.90;57.50
5520;DHT22;2782;52.362;10.012;2022-12-11T00:02:25;15.90;57.50
5520;DHT22;2782;52.362;10.012;2022-12-11T00:03:26;15.90;57.50
5520;DHT22;2782;52.362;10.012;2022-12-11T00:04:27;15.90;57.50
5520;DHT22;2782;52.362;10.012;2022-12-11T00:05:29;15.90;57.50
5520;DHT22;2782;52.362;10.012;2022-12-11T00:06:29;15.90;57.50
5520;DHT22;2782;52.362;10.012;2022-12-11T00:07:32;15.80;57.40
5520;DHT22;2782;52.362;10.012;2022-12-11T00:08:33;15.90;58.00
5520;DHT22;2782;52.362;10.012;2022-12-11T00:09:35;15.90;57.50
5520;DHT22;2782;52.362;10.012;2022-12-11T00:10:36;15.90;57.50
5520;DHT22;2782;52.362;10.012;2022-12-11T00:11:38;15.80;57.40
5520;DHT22;2782;52.362;10.012;2022-12-11T00:12:38;15.90;57.50
5520;DHT22;2782;52.362;10.012;2022-12-11T00:13:40;15.90;57.60
5520;DHT22;2782;52.362;10.012;2022-12-11T00:14:41;15.80;57.50
5520;DHT22;2782;52.362;10.012;2022-12-11T00:15:43;15.80;57.50
5520;DHT22;2782;52.362;10.012;2022-12-11T00:16:46;15.80;57.50
5520;DHT22;2782;52.362;10.012;2022-12-11T00:17:48;15.80;57.50
5520;DHT22;2782;52.362;10.012;2022-12-11T00:18:49;15.80;57.50
5520;DHT22;2782;52.362;10.012;2022-12-11T00:19:50;15.80;57.50
5520;DHT22;2782;52.362;10.012;2022-12-11T00:20:51;15.80;57.50
5520;DHT22;2782;52.362;10.012;2022-12-11T00:21:53;15.80;57.50
5520;DHT22;2782;52.362;10.012;2022-12-11T00:22:55;15.80;57.50
5520;DHT22;2782;52.362;10.012;2022-12-11T00:23:56;15.80;57.50
5520;DHT22;2782;52.362;10.012;2022-12-11T00:24:57;15.80;57.50
5520;DHT22;2782;52.362;10.012;2022-12-11T00:25:59;15.80;57.50
5520;DHT22;2782;52.362;10.012;2022-12-11T00:27:00;15.80;57.50
5520;DHT22;2782;52.362;10.012;2022-12-11T00:28:01;15.80;57.50
5520;DHT22;2782;52.362;10.012;2022-12-11T00:29:02;15.80;57.50
5520;DHT22;2782;52.362;10.012;2022-12-11T00:30:05;15.80;57.50
5520;DHT22;2782;52.362;10.012;2022-12-11T00:31:07;15.80;57.50
5520;DHT22;2782;52.362;10.012;2022-12-11T00:32:09;15.70;57.40
5520;DHT22;2782;52.362;10.012;2022-12-11T00:33:11;15.70;57.40
5520;DHT22;2782;52.362;10.012;2022-12-11T00:34:13;15.70;57.40
5520;DHT22;2782;52.362;10.012;2022-12-11T00:35:14;15.70;57.40
5520;DHT22;2782;52.362;10.012;2022-12-11T00:36:17;15.70;57.40
5520;DHT22;2782;52.362;10.012;2022-12-11T00:37:18;15.70;57.40
5520;DHT22;2782;52.362;10.012;2022-12-11T00:38:22;15.70;57.40
5520;DHT22;2782;52.362;10.012;2022-12-11T00:39:23;15.80;57.40
5520;DHT22;2782;52.362;10.012;2022-12-11T00:40:25;15.70;57.40
5520;DHT22;2782;52.362;10.012;2022-12-11T00:41:26;15.70;57.40
5520;DHT22;2782;52.362;10.012;2022-12-11T00:42:27;15.70;57.40
5520;DHT22;2782;52.362;10.012;2022-12-11T00:43:28;15.70;57.40
5520;DHT22;2782;52.362;10.012;2022-12-11T00:44:30;15.70;57.30
5520;DHT22;2782;52.362;10.012;2022-12-11T00:45:34;15.70;57.40
5520;DHT22;2782;52.362;10.012;2022-12-11T00:46:35;15.70;57.60
5520;DHT22;2782;52.362;10.012;2022-12-11T00:47:36;15.70;57.40
5520;DHT22;2782;52.362;10.012;2022-12-11T00:48:38;15.70;57.40
5520;DHT22;2782;52.362;10.012;2022-12-11T00:49:39;15.70;57.30
5520;DHT22;2782;52.362;10.012;2022-12-11T00:50:41;15.70;57.40
5520;DHT22;2782;52.362;10.012;2022-12-11T00:51:43;15.70;57.40
5520;DHT22;2782;52.362;10.012;2022-12-11T00:52:45;15.70;57.40
5520;DHT22;2782;52.362;10.012;2022-12-11T00:53:47;15.70;57.40
5520;DHT22;2782;52.362;10.012;2022-12-11T00:54:49;15.70;57.40
5520;DHT22;2782;52.362;10.012;2022-12-11T00:55:49;15.70;57.40
5520;DHT22;2782;52.362;10.012;2022-12-11T00:56:51;15.60;57.30
5520;DHT22;2782;52.362;10.012;2022-12-11T00:57:52;15.70;57.90
5520;DHT22;2782;52.362;10.012;2022-12-11T00:58:53;15.70;57.30
5520;DHT22;2782;52.362;10.012;2022-12-11T00:59:54;15.70;57.40
5520;DHT22;2782;52.362;10.012;2022-12-11T01:01:05;15.70;57.30
5520;DHT22;2782;52.362;10.012;2022-12-11T01:02:05;15.70;57.40
5520;DHT22;2782;52.362;10.012;2022-12-11T01:03:07;15.60;57.20
5520;DHT22;2782;52.362;10.012;2022-12-11T01:04:08;15.70;57.30
5520;DHT22;2782;52.362;10.012;2022-12-11T01:05:09;15.70;57.30
5520;DHT22;2782;52.362;10.012;2022-12-11T01:06:13;15.60;57.20
5520;DHT22;2782;52.362;10.012;2022-12-11T01:07:15;15.60;57.20
5520;DHT22;2782;52.362;10.012;2022-12-11T01:08:15;15.60;57.20
5520;DHT22;2782;52.362;10.012;2022-12-11T01:09:19;15.60;57.20
5520;DHT22;2782;52.362;10.012;2022-12-11T01:10:38;15.60;57.20
5520;DHT22;2782;52.362;10.012;2022-12-11T01:11:40;15.60;57.20
5520;DHT22;2782;52.362;10.012;2022-12-11T01:12:44;15.60;57.20
5520;DHT22;2782;52.362;10.012;2022-12-11T01:13:45;15.60;57.20
5520;DHT22;2782;52.362;10.012;2022-12-11T01:14:47;15.60;57.20
5520;DHT22;2782;52.362;10.012;2022-12-11T01:15:47;15.60;57.30
5520;DHT22;2782;52.362;10.012;2022-12-11T01:16:49;15.60;57.30
5520;DHT22;2782;52.362;10.012;2022-12-11T01:17:50;15.60;57.30
5520;DHT22;2782;52.362;10.012;2022-12-11T01:18:52;15.60;57.30
5520;DHT22;2782;52.362;10.012;2022-12-11T01:19:53;15.60;57.20
5520;DHT22;2782;52.362;10.012;2022-12-11T01:20:54;15.60;57.20
5520;DHT22;2782;52.362;10.012;2022-12-11T01:21:55;15.60;57.20
5520;DHT22;2782;52.362;10.012;2022-12-11T01:22:59;15.60;57.20
5520;DHT22;2782;52.362;10.012;2022-12-11T01:24:00;15.60;57.20
5520;DHT22;2782;52.362;10.012;2022-12-11T01:25:03;15.60;57.20
5520;DHT22;2782;52.362;10.012;2022-12-11T01:26:08;15.60;57.10
5520;DHT22;2782;52.362;10.012;2022-12-11T01:27:11;15.60;57.10
5520;DHT22;2782;52.362;10.012;2022-12-11T01:28:12;15.60;57.10
5520;DHT22;2782;52.362;10.012;2022-12-11T01:29:13;15.60;57.10
5520;DHT22;2782;52.362;10.012;2022-12-11T01:30:14;15.60;57.10
5520;DHT22;2782;52.362;10.012;2022-12-11T01:31:17;15.60;57.10
5520;DHT22;2782;52.362;10.012;2022-12-11T01:32:17;15.60;57.10
5520;DHT22;2782;52.362;10.012;2022-12-11T01:33:19;15.70;57.10
5520;DHT22;2782;52.362;10.012;2022-12-11T01:34:20;15.70;57.10
5520;DHT22;2782;52.362;10.012;2022-12-11T01:35:21;15.70;57.10
5520;DHT22;2782;52.362;10.012;2022-12-11T01:36:23;15.60;57.00
5520;DHT22;2782;52.362;10.012;2022-12-11T01:37:25;15.70;57.10
5520;DHT22;2782;52.362;10.012;2022-12-11T01:38:25;15.70;57.10
5520;DHT22;2782;52.362;10.012;2022-12-11T01:39:27;15.70;57.00
5520;DHT22;2782;52.362;10.012;2022-12-11T01:40:29;15.70;57.00
5520;DHT22;2782;52.362;10.012;2022-12-11T01:41:31;15.70;57.00
5520;DHT22;2782;52.362;10.012;2022-12-11T01:42:32;15.70;57.00
5520;DHT22;2782;52.362;10.012;2022-12-11T01:43:53;15.70;56.90
5520;DHT22;2782;52.362;10.012;2022-12-11T01:45:26;15.70;56.90
5520;DHT22;2782;52.362;10.012;2022-12-11T01:46:30;15.70;56.90
5520;DHT22;2782;52.362;10.012;2022-12-11T01:47:31;15.70;56.90
5520;DHT22;2782;52.362;10.012;2022-12-11T01:48:33;15.70;56.90
5520;DHT22;2782;52.362;10.012;2022-12-11T01:49:35;15.70;56.90
5520;DHT22;2782;52.362;10.012;2022-12-11T01:50:41;15.70;56.90
5520;DHT22;2782;52.362;10.012;2022-12-11T01:51:48;15.70;56.80
5520;DHT22;2782;52.362;10.012;2022-12-11T01:52:51;15.70;56.80
5520;DHT22;2782;52.362;10.012;2022-12-11T01:53:56;15.70;56.80
5520;DHT22;2782;52.362;10.012;2022-12-11T01:54:59;15.70;56.80
5520;DHT22;2782;52.362;10.012;2022-12-11T01:56:02;15.70;56.80
5520;DHT22;2782;52.362;10.012;2022-12-11T01:57:06;15.70;57.40
5520;DHT22;2782;52.362;10.012;2022-12-11T01:58:08;15.70;56.80
5520;DHT22;2782;52.362;10.012;2022-12-11T01:59:10;15.70;56.80
5520;DHT22;2782;52.362;10.012;2022-12-11T02:00:14;15.70;56.80
5520;DHT22;2782;52.362;10.012;2022-12-11T02:01:21;15.70;56.80
5520;DHT22;2782;52.362;10.012;2022-12-11T02:02:27;15.70;56.80
5520;DHT22;2782;52.362;10.012;2022-12-11T02:03:29;15.70;56.80
5520;DHT22;2782;52.362;10.012;2022-12-11T02:04:32;15.70;56.80
5520;DHT22;2782;52.362;10.012;2022-12-11T02:05:34;15.70;56.80
5520;DHT22;2782;52.362;10.012;2022-12-11T02:06:38;15.70;56.80
5520;DHT22;2782;52.362;10.012;2022-12-11T02:07:42;15.70;56.80
5520;DHT22;2782;52.362;10.012;2022-12-11T02:08:46;15.70;56.80
5520;DHT22;2782;52.362;10.012;2022-12-11T02:09:47;15.70;56.70
5520;DHT22;2782;52.362;10.012;2022-12-11T02:11:00;15.70;56.70
5520;DHT22;2782;52.362;10.012;2022-12-11T02:12:12;15.70;56.70
5520;DHT22;2782;52.362;10.012;2022-12-11T02:13:20;15.70;56.80
5520;DHT22;2782;52.362;10.012;2022-12-11T02:14:29;15.70;56.80
5520;DHT22;2782;52.362;10.012;2022-12-11T02:15:36;15.70;56.70
5520;DHT22;2782;52.362;10.012;2022-12-11T02:16:45;15.70;56.70
5520;DHT22;2782;52.362;10.012;2022-12-11T02:17:53;15.70;56.70
5520;DHT22;2782;52.362;10.012;2022-12-11T02:18:59;15.70;56.80
5520;DHT22;2782;52.362;10.012;2022-12-11T02:20:07;15.70;56.80
5520;DHT22;2782;52.362;10.012;2022-12-11T02:21:16;15.70;56.80
5520;DHT22;2782;52.362;10.012;2022-12-11T02:22:29;15.70;56.80
5520;DHT22;2782;52.362;10.012;2022-12-11T02:25:16;15.70;56.80
5520;DHT22;2782;52.362;10.012;2022-12-11T02:28:16;15.70;56.80
5520;DHT22;2782;52.362;10.012;2022-12-11T02:29:21;15.60;56.80
5520;DHT22;2782;52.362;10.012;2022-12-11T02:30:24;15.60;56.80
5520;DHT22;2782;52.362;10.012;2022-12-11T02:31:28;15.60;56.80
5520;DHT22;2782;52.362;10.012;2022-12-11T02:32:35;15.60;56.80
5520;DHT22;2782;52.362;10.012;2022-12-11T02:33:42;15.60;56.80
5520;DHT22;2782;52.362;10.012;2022-12-11T02:34:48;15.60;56.80
5520;DHT22;2782;52.362;10.012;2022-12-11T02:35:51;15.60;56.80
5520;DHT22;2782;52.362;10.012;2022-12-11T02:36:56;15.60;56.80
5520;DHT22;2782;52.362;10.012;2022-12-11T02:38:02;15.60;56.80
5520;DHT22;2782;52.362;10.012;2022-12-11T02:39:06;15.60;56.70
5520;DHT22;2782;52.362;10.012;2022-12-11T02:40:11;15.60;56.70
5520;DHT22;2782;52.362;10.012;2022-12-11T02:41:13;15.60;56.70
5520;DHT22;2782;52.362;10.012;2022-12-11T02:42:14;15.60;56.70
5520;DHT22;2782;52.362;10.012;2022-12-11T02:43:19;15.60;56.70
5520;DHT22;2782;52.362;10.012;2022-12-11T02:44:24;15.60;56.70
5520;DHT22;2782;52.362;10.012;2022-12-11T02:45:28;15.60;56.70
5520;DHT22;2782;52.362;10.012;2022-12-11T02:46:30;15.60;56.70
5520;DHT22;2782;52.362;10.012;2022-12-11T02:47:33;15.60;56.70
5520;DHT22;2782;52.362;10.012;2022-12-11T02:48:35;15.60;56.70
5520;DHT22;2782;52.362;10.012;2022-12-11T02:49:39;15.60;56.70
5520;DHT22;2782;52.362;10.012;2022-12-11T02:50:44;15.60;56.70
5520;DHT22;2782;52.362;10.012;2022-12-11T02:51:46;15.60;56.70
5520;DHT22;2782;52.362;10.012;2022-12-11T02:52:49;15.60;56.70
5520;DHT22;2782;52.362;10.012;2022-12-11T02:53:53;15.60;56.70
5520;DHT22;2782;52.362;10.012;2022-12-11T02:54:55;15.60;56.70
5520;DHT22;2782;52.362;10.012;2022-12-11T02:56:01;15.60;56.70
5520;DHT22;2782;52.362;10.012;2022-12-11T02:57:07;15.60;56.70
5520;DHT22;2782;52.362;10.012;2022-12-11T02:58:13;15.60;56.70
5520;DHT22;2782;52.362;10.012;2022-12-11T02:59:22;15.60;56.70
5520;DHT22;2782;52.362;10.012;2022-12-11T03:00:27;15.60;56.70
5520;DHT22;2782;52.362;10.012;2022-12-11T03:01:29;15.60;56.70
5520;DHT22;2782;52.362;10.012;2022-12-11T03:02:30;15.60;56.80
5520;DHT22;2782;52.362;10.012;2022-12-11T03:03:31;15.60;56.80
5520;DHT22;2782;52.362;10.012;2022-12-11T03:04:33;15.60;56.80
5520;DHT22;2782;52.362;10.012;2022-12-11T03:05:35;15.70;56.80
5520;DHT22;2782;52.362;10.012;2022-12-11T03:06:41;15.70;56.80
5520;DHT22;2782;52.362;10.012;2022-12-11T03:07:44;15.70;56.80
5520;DHT22;2782;52.362;10.012;2022-12-11T03:08:45;15.60;56.70
5520;DHT22;2782;52.362;10.012;2022-12-11T03:09:47;15.60;56.70
5520;DHT22;2782;52.362;10.012;2022-12-11T03:10:47;15.70;56.80
5520;DHT22;2782;52.362;10.012;2022-12-11T03:11:49;15.70;56.70
5520;DHT22;2782;52.362;10.012;2022-12-11T03:12:52;15.70;56.70
5520;DHT22;2782;52.362;10.012;2022-12-11T03:13:55;15.70;56.70
5520;DHT22;2782;52.362;10.012;2022-12-11T03:15:00;15.70;56.70
5520;DHT22;2782;52.362;10.012;2022-12-11T03:16:08;15.70;56.70
5520;DHT22;2782;52.362;10.012;2022-12-11T03:17:14;15.70;56.70
5520;DHT22;2782;52.362;10.012;2022-12-11T03:18:22;15.70;56.60
5520;DHT22;2782;52.362;10.012;2022-12-11T03:19:31;15.70;56.60
5520;DHT22;2782;52.362;10.012;2022-12-11T03:20:38;15.70;56.60
5520;DHT22;2782;52.362;10.012;2022-12-11T03:21:45;15.70;56.60
5520;DHT22;2782;52.362;10.012;2022-12-11T03:22:56;15.70;56.60
5520;DHT22;2782;52.362;10.012;2022-12-11T03:24:05;15.70;56.60
5520;DHT22;2782;52.362;10.012;2022-12-11T03:25:10;15.70;56.60
5520;DHT22;2782;52.362;10.012;2022-12-11T03:26:13;15.70;56.60
5520;DHT22;2782;52.362;10.012;2022-12-11T03:27:19;15.70;56.60
5520;DHT22;2782;52.362;10.012;2022-12-11T03:28:28;15.70;56.60
5520;DHT22;2782;52.362;10.012;2022-12-11T03:29:35;15.70;56.60
5520;DHT22;2782;52.362;10.012;2022-12-11T03:30:39;15.70;56.60
5520;DHT22;2782;52.362;10.012;2022-12-11T03:31:44;15.70;56.60
5520;DHT22;2782;52.362;10.012;2022-12-11T03:32:48;15.70;56.60
5520;DHT22;2782;52.362;10.012;2022-12-11T03:33:53;15.70;56.60
5520;DHT22;2782;52.362;10.012;2022-12-11T03:34:58;15.70;56.60
5520;DHT22;2782;52.362;10.012;2022-12-11T03:36:06;15.70;56.60
5520;DHT22;2782;52.362;10.012;2022-12-11T03:37:09;15.70;56.60
5520;DHT22;2782;52.362;10.012;2022-12-11T03:38:16;15.70;56.60
5520;DHT22;2782;52.362;10.012;2022-12-11T03:39:20;15.70;56.60
5520;DHT22;2782;52.362;10.012;2022-12-11T03:40:25;15.70;56.60
5520;DHT22;2782;52.362;10.012;2022-12-11T03:41:28;15.70;56.60
5520;DHT22;2782;52.362;10.012;2022-12-11T03:42:32;15.60;56.50
5520;DHT22;2782;52.362;10.012;2022-12-11T03:43:34;15.70;56.60
5520;DHT22;2782;52.362;10.012;2022-12-11T03:44:36;15.60;56.50
5520;DHT22;2782;52.362;10.012;2022-12-11T03:45:39;15.70;56.60
5520;DHT22;2782;52.362;10.012;2022-12-11T03:46:43;15.70;56.60
5520;DHT22;2782;52.362;10.012;2022-12-11T03:47:45;15.60;56.50
5520;DHT22;2782;52.362;10.012;2022-12-11T03:48:48;15.70;56.50
5520;DHT22;2782;52.362;10.012;2022-12-11T03:49:50;15.60;56.50
5520;DHT22;2782;52.362;10.012;2022-12-11T03:50:55;15.70;56.50
5520;DHT22;2782;52.362;10.012;2022-12-11T03:51:57;15.70;56.50
5520;DHT22;2782;52.362;10.012;2022-12-11T03:53:00;15.60;56.40
5520;DHT22;2782;52.362;10.012;2022-12-11T03:54:02;15.60;56.40
5520;DHT22;2782;52.362;10.012;2022-12-11T03:55:05;15.60;56.40
5520;DHT22;2782;52.362;10.012;2022-12-11T03:56:09;15.70;56.60
5520;DHT22;2782;52.362;10.012;2022-12-11T03:57:17;15.60;56.40
5520;DHT22;2782;52.362;10.012;2022-12-11T03:58:20;15.60;56.40
5520;DHT22;2782;52.362;10.012;2022-12-11T03:59:21;15.60;56.50
5520;DHT22;2782;52.362;10.012;2022-12-11T04:00:22;15.70;56.50
5520;DHT22;2782;52.362;10.012;2022-12-11T04:01:25;15.60;56.50
5520;DHT22;2782;52.362;10.012;2022-12-11T04:02:26;15.60;56.50
5520;DHT22;2782;52.362;10.012;2022-12-11T04:03:28;15.60;56.50
5520;DHT22;2782;52.362;10.012;2022-12-11T04:04:29;15.60;56.50
5520;DHT22;2782;52.362;10.012;2022-12-11T04:05:30;15.60;56.50
5520;DHT22;2782;52.362;10.012;2022-12-11T04:06:31;15.60;56.50
5520;DHT22;2782;52.362;10.012;2022-12-11T04:07:33;15.60;56.50
5520;DHT22;2782;52.362;10.012;2022-12-11T04:08:33;15.60;56.50
5520;DHT22;2782;52.362;10.012;2022-12-11T04:09:35;15.60;56.50
5520;DHT22;2782;52.362;10.012;2022-12-11T04:10:36;15.60;56.50
5520;DHT22;2782;52.362;10.012;2022-12-11T04:11:37;15.60;56.40
5520;DHT22;2782;52.362;10.012;2022-12-11T04:12:38;15.60;56.40
5520;DHT22;2782;52.362;10.012;2022-12-11T04:13:40;15.60;56.40
5520;DHT22;2782;52.362;10.012;2022-12-11T04:14:41;15.60;56.40
5520;DHT22;2782;52.362;10.012;2022-12-11T04:16:00;15.60;56.40
5520;DHT22;2782;52.362;10.012;2022-12-11T04:17:02;15.60;56.40
5520;DHT22;2782;52.362;10.012;2022-12-11T04:18:05;15.60;56.40
5520;DHT22;2782;52.362;10.012;2022-12-11T04:19:25;15.60;56.40
5520;DHT22;2782;52.362;10.012;2022-12-11T04:20:45;15.60;56.40
5520;DHT22;2782;52.362;10.012;2022-12-11T04:22:05;15.50;56.40
5520;DHT22;2782;52.362;10.012;2022-12-11T04:23:24;15.60;56.50
5520;DHT22;2782;52.362;10.012;2022-12-11T04:24:43;15.60;56.50
5520;DHT22;2782;52.362;10.012;2022-12-11T04:25:44;15.50;56.50
5520;DHT22;2782;52.362;10.012;2022-12-11T04:26:46;15.50;56.50
5520;DHT22;2782;52.362;10.012;2022-12-11T04:27:48;15.50;56.60
5520;DHT22;2782;52.362;10.012;2022-12-11T04:28:49;15.50;56.60
5520;DHT22;2782;52.362;10.012;2022-12-11T04:29:51;15.50;56.60
5520;DHT22;2782;52.362;10.012;2022-12-11T04:30:52;15.50;56.60
5520;DHT22;2782;52.362;10.012;2022-12-11T04:31:53;15.50;56.60
5520;DHT22;2782;52.362;10.012;2022-12-11T04:32:55;15.50;56.60
5520;DHT22;2782;52.362;10.012;2022-12-11T04:33:57;15.50;56.50
5520;DHT22;2782;52.362;10.012;2022-12-11T04:34:58;15.60;56.70
5520;DHT22;2782;52.362;10.012;2022-12-11T04:36:00;15.60;56.60
5520;DHT22;2782;52.362;10.012;2022-12-11T04:37:00;15.60;56.60
5520;DHT22;2782;52.362;10.012;2022-12-11T04:38:02;15.60;56.60
5520;DHT22;2782;52.362;10.012;2022-12-11T04:39:04;15.60;56.60
5520;DHT22;2782;52.362;10.012;2022-12-11T04:40:09;15.60;56.60
5520;DHT22;2782;52.362;10.012;2022-12-11T04:41:12;15.60;56.50
5520;DHT22;2782;52.362;10.012;2022-12-11T04:42:14;15.60;56.50
5520;DHT22;2782;52.362;10.012;2022-12-11T04:43:14;15.70;56.60
5520;DHT22;2782;52.362;10.012;2022-12-11T04:44:16;15.60;56.50
5520;DHT22;2782;52.362;10.012;2022-12-11T04:45:17;15.60;56.50
5520;DHT22;2782;52.362;10.012;2022-12-11T04:46:20;15.70;56.60
5520;DHT22;2782;52.362;10.012;2022-12-11T04:47:22;15.60;56.40
5520;DHT22;2782;52.362;10.012;2022-12-11T04:48:24;15.70;56.50
5520;DHT22;2782;52.362;10.012;2022-12-11T04:49:26;15.70;56.80
5520;DHT22;2782;52.362;10.012;2022-12-11T04:50:26;15.70;56.60
5520;DHT22;2782;52.362;10.012;2022-12-11T04:51:28;15.60;56.40
5520;DHT22;2782;52.362;10.012;2022-12-11T04:52:29;15.70;56.50
5520;DHT22;2782;52.362;10.012;2022-12-11T04:53:31;15.70;56.50
5520;DHT22;2782;52.362;10.012;2022-12-11T04:54:31;15.70;56.50
5520;DHT22;2782;52.362;10.012;2022-12-11T04:55:33;15.70;56.50
5520;DHT22;2782;52.362;10.012;2022-12-11T04:56:34;15.70;56.50
5520;DHT22;2782;52.362;10.012;2022-12-11T04:57:36;15.70;56.40
5520;DHT22;2782;52.362;10.012;2022-12-11T04:58:37;15.70;56.40
5520;DHT22;2782;52.362;10.012;2022-12-11T04:59:39;15.70;56.50
5520;DHT22;2782;52.362;10.012;2022-12-11T05:00:41;15.70;56.50
5520;DHT22;2782;52.362;10.012;2022-12-11T05:01:43;15.70;56.40
5520;DHT22;2782;52.362;10.012;2022-12-11T05:02:43;15.70;56.40
5520;DHT22;2782;52.362;10.012;2022-12-11T05:03:46;15.70;56.30
5520;DHT22;2782;52.362;10.012;2022-12-11T05:04:47;15.70;56.40
5520;DHT22;2782;52.362;10.012;2022-12-11T05:05:50;15.70;56.30
5520;DHT22;2782;52.362;10.012;2022-12-11T05:06:51;15.70;56.30
5520;DHT22;2782;52.362;10.012;2022-12-11T05:07:53;15.70;56.30
5520;DHT22;2782;52.362;10.012;2022-12-11T05:08:53;15.70;56.30
5520;DHT22;2782;52.362;10.012;2022-12-11T05:09:55;15.70;56.30
5520;DHT22;2782;52.362;10.012;2022-12-11T05:10:57;15.70;56.30
5520;DHT22;2782;52.362;10.012;2022-12-11T05:11:58;15.70;56.30
5520;DHT22;2782;52.362;10.012;2022-12-11T05:12:59;15.70;56.30
5520;DHT22;2782;52.362;10.012;2022-12-11T05:14:01;15.70;56.30
5520;DHT22;2782;52.362;10.012;2022-12-11T05:15:02;15.70;56.30
5520;DHT22;2782;52.362;10.012;2022-12-11T05:16:04;15.70;56.30
5520;DHT22;2782;52.362;10.012;2022-12-11T05:17:05;15.70;56.30
5520;DHT22;2782;52.362;10.012;2022-12-11T05:18:07;15.70;56.20
5520;DHT22;2782;52.362;10.012;2022-12-11T05:19:09;15.70;56.20
5520;DHT22;2782;52.362;10.012;2022-12-11T05:20:11;15.70;56.20
5520;DHT22;2782;52.362;10.012;2022-12-11T05:21:13;15.70;56.20
5520;DHT22;2782;52.362;10.012;2022-12-11T05:22:15;15.70;56.20
5520;DHT22;2782;52.362;10.012;2022-12-11T05:23:16;15.70;56.20
5520;DHT22;2782;52.362;10.012;2022-12-11T05:24:18;15.70;56.20
5520;DHT22;2782;52.362;10.012;2022-12-11T05:25:18;15.70;56.20
5520;DHT22;2782;52.362;10.012;2022-12-11T05:26:20;15.70;56.20
5520;DHT22;2782;52.362;10.012;2022-12-11T05:27:21;15.70;56.20
5520;DHT22;2782;52.362;10.012;2022-12-11T05:28:24;15.70;56.20
5520;DHT22;2782;52.362;10.012;2022-12-11T05:29:25;15.60;56.20
5520;DHT22;2782;52.362;10.012;2022-12-11T05:30:27;15.60;56.20
5520;DHT22;2782;52.362;10.012;2022-12-11T05:31:28;15.60;56.20
5520;DHT22;2782;52.362;10.012;2022-12-11T05:32:29;15.60;56.20
5520;DHT22;2782;52.362;10.012;2022-12-11T05:33:30;15.70;56.30
5520;DHT22;2782;52.362;10.012;2022-12-11T05:34:34;15.60;56.20
5520;DHT22;2782;52.362;10.012;2022-12-11T05:35:34;15.60;56.20
5520;DHT22;2782;52.362;10.012;2022-12-11T05:36:36;15.60;56.20
5520;DHT22;2782;52.362;10.012;2022-12-11T05:37:37;15.60;56.20
5520;DHT22;2782;52.362;10.012;2022-12-11T05:38:38;15.70;56.30
5520;DHT22;2782;52.362;10.012;2022-12-11T05:39:39;15.60;56.20
5520;DHT22;2782;52.362;10.012;2022-12-11T05:40:41;15.70;56.30
5520;DHT22;2782;52.362;10.012;2022-12-11T05:41:42;15.60;56.20
5520;DHT22;2782;52.362;10.012;2022-12-11T05:42:43;15.60;56.30
5520;DHT22;2782;52.362;10.012;2022-12-11T05:43:44;15.60;56.30
5520;DHT22;2782;52.362;10.012;2022-12-11T05:44:48;15.60;56.30
5520;DHT22;2782;52.362;10.012;2022-12-11T05:45:49;15.60;56.30
5520;DHT22;2782;52.362;10.012;2022-12-11T05:46:50;15.60;56.30
5520;DHT22;2782;52.362;10.012;2022-12-11T05:47:51;15.60;56.30
5520;DHT22;2782;52.362;10.012;2022-12-11T05:48:54;15.60;56.30
5520;DHT22;2782;52.362;10.012;2022-12-11T05:49:57;15.60;56.40
5520;DHT22;2782;52.362;10.012;2022-12-11T05:50:59;15.70;56.40
5520;DHT22;2782;52.362;10.012;2022-12-11T05:52:00;15.60;56.30
5520;DHT22;2782;52.362;10.012;2022-12-11T05:53:02;15.70;56.40
5520;DHT22;2782;52.362;10.012;2022-12-11T05:54:05;15.70;56.40
5520;DHT22;2782;52.362;10.012;2022-12-11T05:55:07;15.60;56.30
5520;DHT22;2782;52.362;10.012;2022-12-11T05:56:10;15.70;56.90
5520;DHT22;2782;52.362;10.012;2022-12-11T05:57:12;15.60;56.30
5520;DHT22;2782;52.362;10.012;2022-12-11T05:58:13;15.60;56.30
5520;DHT22;2782;52.362;10.012;2022-12-11T05:59:15;15.70;56.40
5520;DHT22;2782;52.362;10.012;2022-12-11T06:00:18;15.70;56.50
5520;DHT22;2782;52.362;10.012;2022-12-11T06:01:22;15.70;56.50
5520;DHT22;2782;52.362;10.012;2022-12-11T06:02:24;15.70;56.40
5520;DHT22;2782;52.362;10.012;2022-12-11T06:03:25;15.70;56.50
5520;DHT22;2782;52.362;10.012;2022-12-11T06:04:27;15.70;56.50
5520;DHT22;2782;52.362;10.012;2022-12-11T06:05:30;15.70;56.50
5520;DHT22;2782;52.362;10.012;2022-12-11T06:06:33;15.70;56.50
5520;DHT22;2782;52.362;10.012;2022-12-11T06:07:33;15.70;56.40
5520;DHT22;2782;52.362;10.012;2022-12-11T06:08:35;15.70;56.40
5520;DHT22;2782;52.362;10.012;2022-12-11T06:09:36;15.70;56.40
5520;DHT22;2782;52.362;10.012;2022-12-11T06:10:44;15.80;56.40
5520;DHT22;2782;52.362;10.012;2022-12-11T06:11:44;15.80;56.40
5520;DHT22;2782;52.362;10.012;2022-12-11T06:12:46;15.70;56.30
5520;DHT22;2782;52.362;10.012;2022-12-11T06:13:47;15.70;56.30
5520;DHT22;2782;52.362;10.012;2022-12-11T06:14:48;15.80;56.40
5520;DHT22;2782;52.362;10.012;2022-12-11T06:15:49;15.70;56.90
5520;DHT22;2782;52.362;10.012;2022-12-11T06:16:51;15.70;56.30
5520;DHT22;2782;52.362;10.012;2022-12-11T06:17:52;15.70;56.30
5520;DHT22;2782;52.362;10.012;2022-12-11T06:18:53;15.80;56.30
5520;DHT22;2782;52.362;10.012;2022-12-11T06:19:54;15.80;56.30
5520;DHT22;2782;52.362;10.012;2022-12-11T06:20:57;15.80;56.30
5520;DHT22;2782;52.362;10.012;2022-12-11T06:21:58;15.80;56.30
5520;DHT22;2782;52.362;10.012;2022-12-11T06:23:00;15.80;56.30
5520;DHT22;2782;52.362;10.012;2022-12-11T06:24:02;15.80;56.30
5520;DHT22;2782;52.362;10.012;2022-12-11T06:25:05;15.80;56.30
5520;DHT22;2782;52.362;10.012;2022-12-11T06:26:06;15.80;56.30
5520;DHT22;2782;52.362;10.012;2022-12-11T06:27:08;15.80;56.20
5520;DHT22;2782;52.362;10.012;2022-12-11T06:28:10;15.80;56.20
5520;DHT22;2782;52.362;10.012;2022-12-11T06:29:11;15.80;56.20
5520;DHT22;2782;52.362;10.012;2022-12-11T06:30:13;15.80;56.20
5520;DHT22;2782;52.362;10.012;2022-12-11T06:31:14;15.80;56.20
5520;DHT22;2782;52.362;10.012;2022-12-11T06:32:15;15.80;56.20
5520;DHT22;2782;52.362;10.012;2022-12-11T06:33:16;15.80;56.20
5520;DHT22;2782;52.362;10.012;2022-12-11T06:34:18;15.80;56.20
5520;DHT22;2782;52.362;10.012;2022-12-11T06:35:18;15.80;56.20
5520;DHT22;2782;52.362;10.012;2022-12-11T06:36:23;15.80;56.20
5520;DHT22;2782;52.362;10.012;2022-12-11T06:37:23;15.80;56.20
5520;DHT22;2782;52.362;10.012;2022-12-11T06:38:25;15.80;56.20
5520;DHT22;2782;52.362;10.012;2022-12-11T06:39:26;15.80;56.20
5520;DHT22;2782;52.362;10.012;2022-12-11T06:40:28;15.70;56.10
5520;DHT22;2782;52.362;10.012;2022-12-11T06:41:28;15.80;56.20
5520;DHT22;2782;52.362;10.012;2022-12-11T06:42:30;15.80;56.20
5520;DHT22;2782;52.362;10.012;2022-12-11T06:43:32;15.70;56.10
5520;DHT22;2782;52.362;10.012;2022-12-11T06:44:34;15.70;56.10
5520;DHT22;2782;52.362;10.012;2022-12-11T06:45:36;15.70;56.10
5520;DHT22;2782;52.362;10.012;2022-12-11T06:46:37;15.70;56.10
5520;DHT22;2782;52.362;10.012;2022-12-11T06:47:38;15.70;56.10